D/T METAR WX W/DIR W/SPE G/SPE TEMP DEWP
15/01/19 15:50 EGEO 151550Z 23017KT 7000 -RADZ SCT013 BKN038 OVC045 09/07 Q1005 -RA -DZ SW (230°) 19.6mph 9°C 7°C
15/01/19 15:20 EGEO 151520Z 24021KT 5000 -RADZ SCT013 BKN038 OVC045 09/07 Q1006 -RA -DZ WSW (240°) 24.2mph 9°C 7°C
15/01/19 14:20 EGEO 151420Z 23018KT 9999 VCSH SCT020 BKN038 10/07 Q1006 VCSH SW (230°) 20.7mph 10°C 7°C
15/01/19 13:50 EGEO 151350Z 24021KT 9999 VCSH FEW010 BKN024 OVC050 10/08 Q1006 VCSH WSW (240°) 24.2mph 10°C 8°C
15/01/19 13:20 EGEO 151320Z 25020KT 8000 VCSH SCT024 OVC030 10/08 Q1007 VCSH WSW (250°) 23.0mph 10°C 8°C
15/01/19 12:50 EGEO 151250Z 25021KT 8000 VCSH FEW016 BKN022 OVC034 10/08 Q1007 VCSH WSW (250°) 24.2mph 10°C 8°C
15/01/19 11:50 EGEO 151150Z 24018KT 6000 -RADZ FEW010 BKN015 OVC020 10/09 Q1008 -RA -DZ WSW (240°) 20.7mph 10°C 9°C
15/01/19 10:50 EGEO 151050Z 24015KT 8000 -DZ FEW011 SCT015 OVC021 10/09 Q1008 -DZ WSW (240°) 17.3mph 10°C 9°C
15/01/19 09:50 EGEO 150950Z 24014KT 7500 -DZ OVC016 10/08 Q1009 -DZ WSW (240°) 16.1mph 10°C 8°C
15/01/19 09:20 EGEO 150920Z 24014KT 6000 -DZ BKN017 OVC023 10/08 Q1009 -DZ WSW (240°) 16.1mph 10°C 8°C
15/01/19 08:50 EGEO 150850Z 24013KT 7000 -DZ FEW015 BKN018 OVC023 10/08 Q1009 -DZ WSW (240°) 15.0mph 10°C 8°C
15/01/19 08:20 EGEO 150820Z 26017KT 7000 -DZ SCT014 OVC020 10/08 Q1009 -DZ W (260°) 19.6mph 10°C 8°C
15/01/19 07:50 EGEO 150750Z 26017KT 7000 -DZ SCT014 OVC020 10/09 Q1009 -DZ W (260°) 19.6mph 10°C 9°C
14/01/19 15:50 EGEO 141550Z 25006KT 9999 FEW023 SCT030 08/05 Q1017 WSW (250°) 6.9mph 8°C 5°C
14/01/19 14:50 EGEO 141450Z 27005KT 9999 FEW025 SCT034 07/05 Q1017 W (270°) 5.8mph 7°C 5°C
14/01/19 14:20 EGEO 141420Z 28012KT 9999 FEW018 SCT042 07/05 Q1017 W (280°) 13.8mph 7°C 5°C
14/01/19 13:50 EGEO 141350Z 27009KT 9999 FEW018 SCT048 08/04 Q1018 W (270°) 10.4mph 8°C 4°C
14/01/19 13:20 EGEO 141320Z 26005KT 210V340 9999 FEW018 SCT048 08/05 Q1018 W (260°) 5.8mph 8°C 5°C
14/01/19 12:20 EGEO 141220Z 27007KT 9999 FEW016 07/05 Q1018 W (270°) 8.1mph 7°C 5°C
14/01/19 11:50 EGEO 141150Z 27009KT 9999 VCSH FEW016 SCT036 07/05 Q1018 VCSH W (270°) 10.4mph 7°C 5°C
14/01/19 10:50 EGEO 141050Z 29009KT 9999 FEW017 SCT045 07/04 Q1019 WNW (290°) 10.4mph 7°C 4°C
14/01/19 10:20 EGEO 141020Z 23004KT 9999 -SHRA FEW018 SCT038 07/05 Q1019 -SHRA SW (230°) 4.6mph 7°C 5°C
14/01/19 09:50 EGEO 140950Z 29006KT 9999 VCSH FEW018 07/04 Q1018 VCSH WNW (290°) 6.9mph 7°C 4°C
14/01/19 09:20 EGEO 140920Z 26004KT 9999 FEW018 06/04 Q1018 W (260°) 4.6mph 6°C 4°C
14/01/19 08:50 EGEO 140850Z 23005KT 9999 FEW018 06/04 Q1018 SW (230°) 5.8mph 6°C 4°C
14/01/19 08:20 EGEO 140820Z 22003KT 200V260 9999 FEW022 SCT034 06/04 Q1018 SW (220°) 3.5mph 6°C 4°C
13/01/19 16:20 EGEO 131620Z 31025G35KT 9000 4200NW VCSH FEW018CB BKN030 08/04 Q1008 VCSH NW (310°) 28.8mph 40.3mph 8°C 4°C
13/01/19 15:50 EGEO 131550Z 31024KT 7000 SHRA FEW018CB SCT030 08/05 Q1008 SHRA NW (310°) 27.6mph 8°C 5°C
13/01/19 15:20 EGEO 131520Z 30025KT 9999 4500W SHRA FEW018CB SCT030 09/04 Q1008 SHRA WNW (300°) 28.8mph 9°C 4°C
13/01/19 14:50 EGEO 131450Z 31025KT 9999 FEW018 SCT028 08/04 Q1008 NW (310°) 28.8mph 8°C 4°C
13/01/19 14:20 EGEO 131420Z 32023KT 9999 VCSH FEW018 SCT028 09/04 Q1007 VCSH NW (320°) 26.5mph 9°C 4°C
13/01/19 13:50 EGEO 131350Z 31028KT 9999 VCSH FEW018 SCT032 08/04 Q1007 RESHRA VCSH NW (310°) 32.2mph 8°C 4°C
13/01/19 13:20 EGEO 131320Z 31025KT 9999 -SHRA FEW017 SCT028 09/05 Q1007 -SHRA NW (310°) 28.8mph 9°C 5°C
13/01/19 12:20 EGEO 131220Z 32025G38KT 9999 FEW018 SCT032 09/05 Q1007 NW (320°) 28.8mph 43.7mph 9°C 5°C
13/01/19 11:50 EGEO 131150Z 31027KT 9000 -SHRA FEW018 SCT032 08/05 Q1007 -SHRA NW (310°) 31.1mph 8°C 5°C
13/01/19 10:50 EGEO 131050Z 31027KT 9000 FEW013 SCT032 09/04 Q1007 NW (310°) 31.1mph 9°C 4°C
13/01/19 10:20 EGEO 131020Z 31031KT 9000 VCSH FEW012 SCT024 09/04 Q1007 VCSH NW (310°) 35.7mph 9°C 4°C
13/01/19 09:50 EGEO 130950Z 31034G48KT 8000 -SHRA FEW012 SCT024 09/04 Q1008 -SHRA NW (310°) 39.1mph 55.2mph 9°C 4°C
13/01/19 09:20 EGEO 130920Z 30028KT 8000 FEW012 SCT024 09/05 Q1007 WNW (300°) 32.2mph 9°C 5°C
13/01/19 08:50 EGEO 130850Z 29026KT 6000 -RA FEW012 SCT028 BKN036 09/07 Q1007 -RA WNW (290°) 29.9mph 9°C 7°C
12/01/19 14:20 EGEO 121420Z 28021KT 7000 -RA SCT010 BKN016 OVC031 10/09 Q1014 -RA W (280°) 24.2mph 10°C 9°C
12/01/19 13:50 EGEO 121350Z 28018KT 6000 -RADZ SCT010 BKN016 OVC031 10/09 Q1014 -RA -DZ W (280°) 20.7mph 10°C 9°C
12/01/19 13:20 EGEO 121320Z 28011KT 6000 -RADZ FEW008 SCT014 BKN024 OVC031 09/08 Q1015 -RA -DZ W (280°) 12.7mph 9°C 8°C
12/01/19 12:50 EGEO 121250Z 28017KT 6000 -RADZ FEW008 SCT014 BKN024 OVC031 09/08 Q1015 -RA -DZ W (280°) 19.6mph 9°C 8°C
12/01/19 12:20 EGEO 121220Z 25009KT 6000 -RA FEW005 BKN011 OVC016 09/08 Q1016 -RA WSW (250°) 10.4mph 9°C 8°C
12/01/19 11:20 EGEO 121120Z 27013KT 4200 -RADZ FEW005 BKN011 OVC016 08/07 Q1017 -RA -DZ W (270°) 15.0mph 8°C 7°C
12/01/19 10:50 EGEO 121050Z 28020KT 7000 -SHRA FEW013 BKN019 08/07 Q1017 -SHRA W (280°) 23.0mph 8°C 7°C
12/01/19 10:20 EGEO 121020Z 27016KT 8000 -SHRA SCT013 BKN021 09/07 Q1017 -SHRA W (270°) 18.4mph 9°C 7°C
12/01/19 09:50 EGEO 120950Z 27017KT 9999 VCSH SCT013 BKN021 09/06 Q1017 VCSH W (270°) 19.6mph 9°C 6°C
12/01/19 08:50 EGEO 120850Z 27015KT 9999 -DZ SCT013 BKN021 09/07 Q1018 -DZ W (270°) 17.3mph 9°C 7°C
12/01/19 08:20 EGEO 120820Z 26013KT 9999 VCSH FEW014 SCT022 09/07 Q1018 VCSH W (260°) 15.0mph 9°C 7°C
12/01/19 07:50 EGEO 120750Z 28014KT 9999 -DZ FEW014 SCT022 09/07 Q1018 -DZ W (280°) 16.1mph 9°C 7°C
11/01/19 15:50 EGEO 111550Z 26005KT 9999 400NW -SHRA FEW010 SCT024 SCT046 09/08 Q1027 -SHRA W (260°) 5.8mph 9°C 8°C
11/01/19 14:50 EGEO 111450Z VRB02KT 9999 FEW010 SCT024 SCT046 09/08 Q1027 N (0°) 2.3mph 9°C 8°C
11/01/19 14:20 EGEO 111420Z 27004KT 9999 FEW010 SCT024 09/08 Q1028 W (270°) 4.6mph 9°C 8°C
11/01/19 13:50 EGEO 111350Z 25004KT 220V280 9999 -SHRA FEW010 SCT024 BKN040 09/08 Q1028 -SHRA WSW (250°) 4.6mph 9°C 8°C
11/01/19 13:20 EGEO 111320Z VRB02KT 9999 FEW010 SCT024 BKN040 09/08 Q1028 N (0°) 2.3mph 9°C 8°C
11/01/19 12:20 EGEO 111220Z 25004KT 9999 FEW001 SCT020 BKN030 08/08 Q1029 WSW (250°) 4.6mph 8°C 8°C
11/01/19 11:50 EGEO 111150Z 26004KT 4500 -RADZ BR FEW001 SCT011 BKN016 OVC025 08/07 Q1030 -RA -DZ BR W (260°) 4.6mph 8°C 7°C
11/01/19 11:20 EGEO 111120Z 31005KT 4200 -RADZ FEW003 SCT012 BKN018 OVC026 08/07 Q1030 -RA -DZ NW (310°) 5.8mph 8°C 7°C
11/01/19 10:20 EGEO 111020Z 24006KT 9000 VCSH FEW015 SCT024 BKN032 09/06 Q1030 VCSH WSW (240°) 6.9mph 9°C 6°C
11/01/19 09:50 EGEO 110950Z 25004KT 9999 FEW016 BKN039 09/07 Q1030 WSW (250°) 4.6mph 9°C 7°C
11/01/19 09:20 EGEO 110920Z 30006KT 9999 FEW023 BKN042 09/07 Q1030 WNW (300°) 6.9mph 9°C 7°C
11/01/19 08:50 EGEO 110850Z 30005KT 9999 FEW026 BKN042 09/07 Q1031 WNW (300°) 5.8mph 9°C 7°C
10/01/19 15:20 EGEO 101520Z 31012KT 9999 VCSH FEW018 BKN024 OVC030 09/06 Q1030 VCSH NW (310°) 13.8mph 9°C 6°C
10/01/19 14:50 EGEO 101450Z 30011KT 8000 -RADZ OVC030 09/06 Q1031 -RA -DZ WNW (300°) 12.7mph 9°C 6°C
10/01/19 14:20 EGEO 101420Z 31011KT 9999 FEW024 SCT045 09/05 Q1031 NW (310°) 12.7mph 9°C 5°C
10/01/19 13:50 EGEO 101350Z 31011KT 9999 FEW024 SCT037 09/05 Q1031 NW (310°) 12.7mph 9°C 5°C
10/01/19 12:50 EGEO 101250Z 30016KT 9999 VCSH FEW024 BKN037 10/05 Q1031 VCSH WNW (300°) 18.4mph 10°C 5°C
10/01/19 12:20 EGEO 101220Z 30009KT 260V340 9999 FEW022 SCT037 OVC042 09/06 Q1031 WNW (300°) 10.4mph 9°C 6°C
10/01/19 11:50 EGEO 101150Z 26008KT 9999 SCT025 OVC032 09/06 Q1031 W (260°) 9.2mph 9°C 6°C
10/01/19 10:50 EGEO 101050Z 28012KT 9000 -DZ SCT026 BKN040 OVC047 09/06 Q1031 -DZ W (280°) 13.8mph 9°C 6°C
10/01/19 09:50 EGEO 100950Z 30009KT 9999 FEW027 BKN046 09/07 Q1031 WNW (300°) 10.4mph 9°C 7°C
10/01/19 09:20 EGEO 100920Z 33006KT 300V030 9999 FEW027 BKN046 08/08 Q1031 NNW (330°) 6.9mph 8°C 8°C
10/01/19 08:50 EGEO 100850Z VRB02KT 9999 FEW027 OVC046 07/07 Q1031 N (0°) 2.3mph 7°C 7°C
10/01/19 08:20 EGEO 100820Z 12003KT 9999 FEW018 OVC045 06/06 Q1031 ESE (120°) 3.5mph 6°C 6°C
9/01/19 14:50 EGEO 091450Z 10005KT 9999 VCSH SCT024 BKN025 OVC038 04/02 Q1032 VCSH E (100°) 5.8mph 4°C 2°C
9/01/19 13:50 EGEO 091350Z 10005KT 9999 SCT023 BKN039 OVC045 04/02 Q1033 E (100°) 5.8mph 4°C 2°C
9/01/19 11:50 EGEO 091150Z 10005KT 9999 FEW016 BKN048 03/02 Q1033 E (100°) 5.8mph 3°C 2°C
9/01/19 10:50 EGEO 091050Z 11004KT 9999 BKN048 03/01 Q1034 ESE (110°) 4.6mph 3°C 1°C
9/01/19 10:20 EGEO 091020Z 10004KT 9999 FEW018 02/00 Q1034 E (100°) 4.6mph 2°C 0°C
9/01/19 09:50 EGEO 090950Z 11006KT 9999 FEW020 01/00 Q1034 ESE (110°) 6.9mph 1°C 0°C
9/01/19 09:20 EGEO 090920Z 11005KT 9999 FEW020 01/01 Q1034 ESE (110°) 5.8mph 1°C 1°C
9/01/19 08:50 EGEO 090850Z 10006KT 9999 FEW020 01/00 Q1034 E (100°) 6.9mph 1°C 0°C
9/01/19 08:20 EGEO 090820Z 10006KT CAVOK 01/00 Q1034 E (100°) 6.9mph 1°C 0°C
9/01/19 07:50 EGEO 090750Z 12004KT 9999 SCT040 00/M00 Q1033 ESE (120°) 4.6mph 0°C 0°C
8/01/19 15:50 EGEO 081550Z 29011KT 9999 FEW035 08/04 Q1031 WNW (290°) 12.7mph 8°C 4°C
8/01/19 15:20 EGEO 081520Z 30011KT 9999 FEW037 08/03 Q1031 WNW (300°) 12.7mph 8°C 3°C
8/01/19 14:50 EGEO 081450Z 31015KT 9999 FEW037 08/03 Q1031 NW (310°) 17.3mph 8°C 3°C
8/01/19 14:20 EGEO 081420Z 32017KT 9999 FEW030 08/03 Q1031 NW (320°) 19.6mph 8°C 3°C
8/01/19 13:50 EGEO 081350Z 32016KT 9999 FEW035 08/03 Q1031 NW (320°) 18.4mph 8°C 3°C
8/01/19 13:20 EGEO 081320Z 32016KT 9999 FEW035 08/03 Q1031 NW (320°) 18.4mph 8°C 3°C
8/01/19 12:20 EGEO 081220Z 32018KT 9999 FEW035 08/03 Q1031 NW (320°) 20.7mph 8°C 3°C
8/01/19 11:50 EGEO 081150Z 31018KT 9999 FEW020 SCT035 08/03 Q1031 NW (310°) 20.7mph 8°C 3°C
8/01/19 11:20 EGEO 081120Z 31011KT 9999 FEW020 SCT035 08/03 Q1031 NW (310°) 12.7mph 8°C 3°C
8/01/19 10:50 EGEO 081050Z VRB03KT 9999 FEW020 SCT035 08/03 Q1031 N (0°) 3.5mph 8°C 3°C
8/01/19 09:50 EGEO 080950Z 32014KT 9999 FEW024 SCT029 08/03 Q1030 NW (320°) 16.1mph 8°C 3°C
8/01/19 09:20 EGEO 080920Z 32009KT 280V340 9999 FEW020 SCT025 08/03 Q1030 NW (320°) 10.4mph 8°C 3°C
8/01/19 08:50 EGEO 080850Z 33010KT 9999 FEW020 SCT025 08/03 Q1030 NNW (330°) 11.5mph 8°C 3°C
7/01/19 15:50 EGEO 071550Z 29026G36KT 9000 -SHRA BKN023 09/05 Q1022 -SHRA WNW (290°) 29.9mph 41.4mph 9°C 5°C
7/01/19 15:20 EGEO 071520Z 29031KT 9000 VCSH FEW020 BKN029 BKN045 09/05 Q1021 VCSH WNW (290°) 35.7mph 9°C 5°C
7/01/19 13:50 EGEO 071350Z 29024KT 9000 VCSH FEW016 SCT026 09/06 Q1021 VCSH WNW (290°) 27.6mph 9°C 6°C
7/01/19 13:20 EGEO 071320Z 28029KT 9000 VCSH FEW024 SCT032 09/06 Q1021 VCSH W (280°) 33.4mph 9°C 6°C
7/01/19 12:20 EGEO 071220Z 28026G37KT 9999 -SHRA SCT036 BKN052 10/05 Q1021 -SHRA W (280°) 29.9mph 42.6mph 10°C 5°C
7/01/19 11:20 EGEO 071120Z 28025KT 9999 VCSH FEW024 BKN033 OVC054 10/05 Q1021 VCSH W (280°) 28.8mph 10°C 5°C
7/01/19 10:50 EGEO 071050Z 28026KT 9999 VCSH SCT026 BKN033 09/06 Q1021 VCSH W (280°) 29.9mph 9°C 6°C
7/01/19 09:20 EGEO 070920Z 28022KT 9000 VCSH SCT022 BKN039 10/06 Q1021 VCSH W (280°) 25.3mph 10°C 6°C
7/01/19 08:50 EGEO 070850Z 29025KT 9000 VCSH SCT018 BKN024 OVC031 11/08 Q1021 VCSH WNW (290°) 28.8mph 11°C 8°C
7/01/19 08:20 EGEO 070820Z 27020KT 4000 -RADZ SCT013 BKN021 OVC026 10/09 Q1021 -RA -DZ W (270°) 23.0mph 10°C 9°C
7/01/19 07:50 EGEO 070750Z 24019KT 6000 -RADZ BKN006 OVC013 10/10 Q1021 -RA -DZ WSW (240°) 21.9mph 10°C 10°C
6/01/19 15:20 EGEO 061520Z 09006KT 4200 BR VCFG FEW001 BKN004 OVC011 08/08 Q1033 BR VCFG E (90°) 6.9mph 8°C 8°C
6/01/19 14:50 EGEO 061450Z 10004KT 4200 BR VCFG FEW001 BKN004 OVC011 08/08 Q1033 BR VCFG E (100°) 4.6mph 8°C 8°C
6/01/19 14:20 EGEO 061420Z 10005KT 4200 BR VCFG FEW001 BKN004 OVC011 08/08 Q1033 BR VCFG E (100°) 5.8mph 8°C 8°C
6/01/19 13:20 EGEO 061320Z 10005KT 4000 BR VCFG FEW001 BKN004 OVC011 08/08 Q1034 BR VCFG E (100°) 5.8mph 8°C 8°C
6/01/19 12:50 EGEO 061250Z 09005KT 4200 BR VCFG FEW002 BKN007 OVC014 08/08 Q1034 BR VCFG E (90°) 5.8mph 8°C 8°C
6/01/19 12:20 EGEO 061220Z 10006KT 7000 FEW005 BKN010 OVC018 08/07 Q1034 E (100°) 6.9mph 8°C 7°C
6/01/19 10:50 EGEO 061050Z 10007KT 4500 BR FEW003 SCT006 BKN009 OVC016 07/07 Q1034 BR E (100°) 8.1mph 7°C 7°C
6/01/19 10:20 EGEO 061020Z 10007KT 4200 -RADZ BR FEW003 SCT006 BKN009 OVC016 07/07 Q1034 -RA -DZ BR E (100°) 8.1mph 7°C 7°C
6/01/19 09:50 EGEO 060950Z 09008KT 5000 -RADZ BR FEW003 SCT006 BKN010 OVC016 07/07 Q1034 -RA -DZ BR E (90°) 9.2mph 7°C 7°C
6/01/19 09:20 EGEO 060920Z 10006KT 5000 -RA BR FEW003 SCT006 BKN010 OVC018 07/07 Q1034 -RA BR E (100°) 6.9mph 7°C 7°C
6/01/19 08:50 EGEO 060850Z 11007KT 6000 -RADZ FEW004 SCT008 BKN012 07/07 Q1034 -RA -DZ ESE (110°) 8.1mph 7°C 7°C
5/01/19 13:50 EGEO 051350Z 16005KT 9999 FEW014 BKN032 06/02 Q1035 SSE (160°) 5.8mph 6°C 2°C
5/01/19 12:50 EGEO 051250Z 17006KT 9999 FEW014 BKN025 06/02 Q1035 S (170°) 6.9mph 6°C 2°C
5/01/19 11:50 EGEO 051150Z 16006KT 9999 FEW014 BKN025 06/02 Q1035 SSE (160°) 6.9mph 6°C 2°C
5/01/19 10:50 EGEO 051050Z 15006KT 9999 FEW015 BKN026 05/02 Q1036 SSE (150°) 6.9mph 5°C 2°C
5/01/19 10:20 EGEO 051020Z 14005KT 9999 FEW015 BKN026 05/02 Q1036 SE (140°) 5.8mph 5°C 2°C
5/01/19 09:50 EGEO 050950Z 14004KT 9999 FEW020 BKN026 05/02 Q1037 SE (140°) 4.6mph 5°C 2°C
5/01/19 08:50 EGEO 050850Z 17006KT 9999 FEW020 SCT026 05/02 Q1037 S (170°) 6.9mph 5°C 2°C
5/01/19 08:20 EGEO 050820Z 17006KT 9999 FEW017 SCT026 05/02 Q1037 S (170°) 6.9mph 5°C 2°C
5/01/19 07:50 EGEO 050750Z 18007KT 9999 FEW015 SCT025 05/02 Q1037 S (180°) 8.1mph 5°C 2°C
4/01/19 15:50 EGEO 041550Z 30007KT 9999 FEW028 BKN038 08/03 Q1039 WNW (300°) 8.1mph 8°C 3°C
4/01/19 14:50 EGEO 041450Z 28007KT 220V300 9999 FEW028 BKN038 07/03 Q1039 W (280°) 8.1mph 7°C 3°C
4/01/19 14:20 EGEO 041420Z 27007KT 230V300 9999 FEW028 BKN038 07/03 Q1039 W (270°) 8.1mph 7°C 3°C
4/01/19 13:50 EGEO 041350Z 22003KT 190V250 9999 FEW028 BKN038 07/03 Q1040 SW (220°) 3.5mph 7°C 3°C
4/01/19 13:20 EGEO 041320Z 21003KT 180V240 9999 FEW028 BKN030 07/03 Q1040 SSW (210°) 3.5mph 7°C 3°C
4/01/19 12:20 EGEO 041220Z 24007KT 200V280 9999 FEW026 BKN030 07/03 Q1040 WSW (240°) 8.1mph 7°C 3°C
4/01/19 11:50 EGEO 041150Z 24004KT 210V280 9999 FEW026 BKN030 07/03 Q1040 WSW (240°) 4.6mph 7°C 3°C
4/01/19 11:20 EGEO 041120Z 23006KT 9999 FEW026 BKN030 07/03 Q1040 SW (230°) 6.9mph 7°C 3°C
4/01/19 10:50 EGEO 041050Z 24007KT 9999 FEW024 BKN030 07/03 Q1040 WSW (240°) 8.1mph 7°C 3°C
4/01/19 09:50 EGEO 040950Z 24008KT 9999 FEW016 SCT024 BKN030 07/03 Q1040 WSW (240°) 9.2mph 7°C 3°C
4/01/19 09:20 EGEO 040920Z VRB02KT 9999 FEW006 SCT024 BKN030 07/05 Q1040 N (0°) 2.3mph 7°C 5°C
4/01/19 08:50 EGEO 040850Z 09006KT 9999 FEW006 SCT024 BKN030 05/05 Q1040 E (90°) 6.9mph 5°C 5°C
3/01/19 15:20 EGEO 031520Z 10006KT 9999 FEW015 SCT022 BKN032 05/03 Q1041 E (100°) 6.9mph 5°C 3°C
3/01/19 14:20 EGEO 031420Z 10007KT 9999 FEW015 SCT024 BKN032 05/03 Q1040 E (100°) 8.1mph 5°C 3°C